Time;durP1;ratioP1;P1;durP2;ratioP2;P2;SDS_P1;SDS_P2;PMS_P1;PMS_P2;Temp;Humidity;BMP_temperature;BMP_pressure;BME280_temperature;BME280_humidity;BME280_pressure;Samples;Min_cycle;Max_cycle;Signal;HPM_P1;HPM_P2
2022/08/31 00:04:31;;;;;;;;;25.60;25.60;;;;;30.36;45.95;99271.88;5150002;27;9591;-77
2022/08/31 00:07:00;;;;;;;;;26.00;24.00;;;;;30.31;46.39;99277.59;5133919;27;8871;-77
2022/08/31 00:09:29;;;;;;;;;30.60;28.00;;;;;30.18;46.42;99279.66;5129033;27;9630;-77
2022/08/31 00:11:58;;;;;;;;;28.60;27.60;;;;;30.19;46.90;99276.00;5131926;27;8952;-77
2022/08/31 00:14:27;;;;;;;;;27.00;24.40;;;;;30.19;46.33;99273.31;5149766;27;8827;-79
2022/08/31 00:16:57;;;;;;;;;29.40;25.80;;;;;30.16;46.53;99270.03;5149687;27;8850;-77
2022/08/31 00:19:26;;;;;;;;;27.80;26.40;;;;;30.15;47.08;99274.53;5131070;27;8855;-78
2022/08/31 00:21:55;;;;;;;;;24.80;23.80;;;;;30.17;47.36;99271.72;5150783;27;8843;-76
2022/08/31 00:24:23;;;;;;;;;26.50;26.50;;;;;30.16;47.00;99267.34;5149651;27;9580;-77
2022/08/31 00:26:52;;;;;;;;;24.40;24.40;;;;;30.17;46.84;99269.03;5096159;27;8993;-77
2022/08/31 00:29:20;;;;;;;;;26.00;25.00;;;;;30.15;47.61;99271.84;5109213;27;8951;-77
2022/08/31 00:31:49;;;;;;;;;27.50;25.50;;;;;30.12;46.65;99262.22;5111955;27;8865;-77
2022/08/31 00:34:21;;;;;;;;;26.75;26.00;;;;;30.11;47.48;99268.59;5110991;27;8827;-75
2022/08/31 00:36:49;;;;;;;;;23.40;20.40;;;;;30.10;47.43;99274.94;5111010;27;8830;-78
2022/08/31 00:39:18;;;;;;;;;26.40;25.20;;;;;30.03;47.31;99276.44;5110708;27;9433;-77
2022/08/31 00:41:46;;;;;;;;;33.20;30.20;;;;;29.95;47.71;99276.28;5128546;27;8853;-78
2022/08/31 00:44:15;;;;;;;;;26.40;25.20;;;;;29.93;47.36;99279.09;5107702;27;8911;-77
2022/08/31 00:46:44;;;;;;;;;25.40;23.80;;;;;29.92;47.12;99274.72;5130587;27;8970;-78
2022/08/31 00:49:17;;;;;;;;;28.40;26.60;;;;;29.96;47.88;99277.13;5131278;27;8831;-77
2022/08/31 00:51:51;;;;;;;;;23.80;23.20;;;;;29.89;47.67;99280.34;5130771;27;9735;-78
2022/08/31 00:54:24;;;;;;;;;26.00;26.00;;;;;29.89;47.68;99280.34;5079114;27;8894;-75
2022/08/31 00:56:54;;;;;;;;;30.00;28.20;;;;;29.89;47.22;99276.81;5105551;28;8855;-76
2022/08/31 00:59:23;;;;;;;;;30.00;29.00;;;;;29.61;47.94;99278.25;5086100;28;9702;-76
2022/08/31 01:01:52;;;;;;;;;30.80;29.80;;;;;29.52;48.31;99275.34;5096105;28;9608;-76
2022/08/31 01:04:21;;;;;;;;;25.80;25.80;;;;;29.52;48.53;99269.13;5105517;28;8836;-76
2022/08/31 01:06:52;;;;;;;;;29.60;29.60;;;;;29.65;48.51;99277.00;5093580;28;9662;-76
2022/08/31 01:09:25;;;;;;;;;28.80;28.80;;;;;29.55;48.55;99272.41;5089662;28;8978;-76
2022/08/31 01:11:54;;;;;;;;;28.60;27.00;;;;;29.60;48.38;99263.09;5078065;28;8888;-77
2022/08/31 01:14:22;;;;;;;;;27.80;27.60;;;;;29.62;48.46;99266.50;5087993;28;8854;-76
2022/08/31 01:16:54;;;;;;;;;33.40;30.20;;;;;29.60;49.01;99268.47;5092571;28;8835;-76
2022/08/31 01:19:30;;;;;;;;;28.80;28.00;;;;;29.73;48.21;99271.84;5089713;28;8855;-76
2022/08/31 01:22:10;;;;;;;;;26.60;26.60;;;;;29.71;48.73;99263.03;5105899;28;8874;-77
2022/08/31 01:24:45;;;;;;;;;31.40;30.00;;;;;29.73;48.86;99263.78;5105731;28;8855;-77
2022/08/31 01:27:16;;;;;;;;;29.60;28.00;;;;;29.63;48.87;99265.53;5112272;27;8848;-75
2022/08/31 01:29:46;;;;;;;;;30.20;27.00;;;;;29.64;48.33;99267.22;5149068;27;8841;-76
2022/08/31 01:32:15;;;;;;;;;27.40;26.80;;;;;29.60;48.45;99263.09;5129164;27;8866;-79
2022/08/31 01:34:43;;;;;;;;;28.80;27.80;;;;;29.59;49.03;99261.41;5130513;27;8864;-77
2022/08/31 01:37:12;;;;;;;;;29.60;27.60;;;;;29.61;48.97;99267.50;5112882;27;8859;-77
2022/08/31 01:39:44;;;;;;;;;33.80;29.80;;;;;29.63;48.48;99262.84;5138627;27;8833;-77
2022/08/31 01:42:12;;;;;;;;;30.60;27.20;;;;;29.59;48.92;99261.41;5128326;27;8850;-76
2022/08/31 01:44:41;;;;;;;;;33.00;30.40;;;;;29.55;48.82;99253.59;5128435;27;8952;-78
2022/08/31 01:47:10;;;;;;;;;28.80;26.60;;;;;29.29;49.39;99261.16;5110161;27;8945;-78
2022/08/31 01:49:39;;;;;;;;;28.60;26.80;;;;;29.34;49.31;99260.78;5109292;27;8887;-78
2022/08/31 01:52:08;;;;;;;;;26.40;25.00;;;;;29.24;49.79;99257.13;5109525;27;8833;-76
2022/08/31 01:54:37;;;;;;;;;30.40;28.20;;;;;28.69;51.51;99259.78;5109615;27;8861;-78
2022/08/31 01:57:09;;;;;;;;;34.00;31.25;;;;;28.19;53.08;99270.84;5092710;27;8957;-76
2022/08/31 02:00:16;;;;;;;;;33.60;32.20;;;;;28.07;53.49;99269.97;5064333;28;8848;-77
2022/08/31 02:02:47;;;;;;;;;28.60;27.20;;;;;28.36;52.51;99262.31;5064059;28;8847;-76
2022/08/31 02:05:16;;;;;;;;;36.25;32.75;;;;;28.47;51.94;99266.84;5047608;28;8863;-77
2022/08/31 02:07:46;;;;;;;;;35.50;33.00;;;;;27.92;54.05;99268.47;5063948;28;8989;-76
2022/08/31 02:10:14;;;;;;;;;30.60;29.80;;;;;27.56;55.37;99267.59;5051426;28;9599;-76
2022/08/31 02:12:44;;;;;;;;;32.75;29.75;;;;;27.65;55.14;99268.72;5035696;28;8827;-77
2022/08/31 02:15:13;;;;;;;;;34.00;31.25;;;;;27.64;55.12;99272.38;5071627;28;8858;-76
2022/08/31 02:17:42;;;;;;;;;33.75;30.75;;;;;27.51;55.49;99275.13;5087951;28;8874;-75
2022/08/31 02:20:13;;;;;;;;;33.25;30.00;;;;;27.29;56.23;99275.88;5088357;28;8988;-76
2022/08/31 02:22:42;;;;;;;;;33.25;31.00;;;;;27.30;56.26;99280.28;5070358;28;8966;-76
2022/08/31 02:25:11;;;;;;;;;32.25;31.00;;;;;27.41;55.75;99267.78;5054781;28;8849;-77
2022/08/31 02:27:39;;;;;;;;;30.60;30.00;;;;;27.68;55.00;99274.72;5087944;28;8861;-76
2022/08/31 02:30:16;;;;;;;;;33.25;31.50;;;;;27.94;54.23;99271.88;5075589;27;8922;-76
2022/08/31 02:32:44;;;;;;;;;37.25;32.50;;;;;28.07;53.72;99269.09;5119362;27;8850;-77
2022/08/31 02:35:13;;;;;;;;;30.60;30.40;;;;;28.24;53.29;99263.28;5113049;27;8829;-77
2022/08/31 02:37:42;;;;;;;;;33.40;30.60;;;;;28.36;52.70;99270.38;5095927;27;8842;-76
2022/08/31 02:40:12;;;;;;;;;35.00;33.00;;;;;28.50;52.21;99268.41;5078304;27;8976;-77
2022/08/31 02:42:43;;;;;;;;;42.50;36.75;;;;;28.55;52.32;99264.44;5112993;27;8837;-76
2022/08/31 02:45:23;;;;;;;;;37.25;33.75;;;;;28.66;52.10;99263.56;5087260;28;8857;-78
2022/08/31 02:47:54;;;;;;;;;34.60;31.80;;;;;28.72;51.78;99268.44;5070880;28;8884;-77
2022/08/31 02:50:29;;;;;;;;;36.40;34.00;;;;;28.58;51.78;99264.19;5070620;28;9548;-78
2022/08/31 02:52:59;;;;;;;;;34.25;32.50;;;;;28.63;52.08;99260.28;5070303;28;8856;-77
2022/08/31 02:55:30;;;;;;;;;35.60;32.20;;;;;28.68;51.72;99264.31;5070320;28;8849;-77
2022/08/31 02:57:58;;;;;;;;;34.80;31.60;;;;;28.75;51.53;99267.34;5084877;28;9699;-77
2022/08/31 03:00:28;;;;;;;;;31.80;30.60;;;;;28.78;51.57;99273.31;5089934;28;8835;-78
2022/08/31 03:02:58;;;;;;;;;32.20;30.20;;;;;28.80;51.51;99269.66;5090626;28;9070;-78
2022/08/31 03:05:27;;;;;;;;;30.25;30.00;;;;;28.78;51.14;99265.25;5024276;28;8859;-78
2022/08/31 03:07:57;;;;;;;;;37.60;33.00;;;;;28.75;51.59;99267.34;5090808;28;8966;-77
2022/08/31 03:10:26;;;;;;;;;36.60;33.60;;;;;28.76;51.57;99269.06;5057306;28;8908;-77
2022/08/31 03:12:55;;;;;;;;;32.80;31.80;;;;;28.80;51.30;99269.66;5049025;28;8993;-79
2022/08/31 03:15:26;;;;;;;;;32.00;30.00;;;;;28.81;50.98;99261.50;5018264;28;9711;-77
2022/08/31 03:17:56;;;;;;;;;58.50;47.00;;;;;28.82;51.49;99262.34;5087462;28;8912;-76
2022/08/31 03:20:27;;;;;;;;;56.75;46.75;;;;;28.82;51.68;99267.69;5070028;28;9203;-76
2022/08/31 03:22:56;;;;;;;;;58.50;47.00;;;;;28.78;51.34;99262.56;5086687;28;8861;-76
2022/08/31 03:25:27;;;;;;;;;42.00;35.00;;;;;28.77;51.41;99260.00;5086600;28;8850;-76
2022/08/31 03:27:55;;;;;;;;;36.25;33.25;;;;;28.78;51.43;99267.09;5069719;28;8850;-77
2022/08/31 03:30:24;;;;;;;;;35.75;31.50;;;;;28.75;51.61;99265.53;5085126;28;8979;-76
2022/08/31 03:33:07;;;;;;;;;38.25;33.25;;;;;28.77;51.41;99262.69;5025960;28;8939;-76
2022/08/31 03:35:36;;;;;;;;;39.25;35.25;;;;;28.72;51.86;99265.75;5069237;28;8833;-76
2022/08/31 03:38:05;;;;;;;;;41.75;36.00;;;;;28.66;51.82;99268.94;5068796;28;8888;-76
2022/08/31 03:40:33;;;;;;;;;35.25;32.50;;;;;28.65;51.84;99261.00;5085463;28;8858;-77
2022/08/31 03:43:03;;;;;;;;;36.75;34.00;;;;;28.63;52.12;99271.00;5071013;27;9568;-77
2022/08/31 03:45:33;;;;;;;;;39.50;32.50;;;;;28.58;52.16;99266.88;5129947;27;8831;-77
2022/08/31 03:48:04;;;;;;;;;43.00;36.50;;;;;28.56;52.32;99268.84;5115844;27;9169;-77
2022/08/31 03:50:42;;;;;;;;;46.25;37.50;;;;;28.56;52.27;99276.00;5127732;27;8843;-76
2022/08/31 03:53:17;;;;;;;;;33.75;32.75;;;;;28.58;52.28;99276.72;5125626;27;8824;-77
2022/08/31 03:55:52;;;;;;;;;43.25;37.00;;;;;28.60;51.91;99280.16;5079501;27;8861;-76
2022/08/31 03:58:21;;;;;;;;;62.50;50.25;;;;;28.62;52.12;99282.72;5111496;27;9574;-77
2022/08/31 04:00:50;;;;;;;;;46.75;38.50;;;;;28.54;52.34;99280.63;5116965;27;8851;-78
2022/08/31 04:03:38;;;;;;;;;44.00;37.25;;;;;28.55;52.08;99279.69;5133217;27;8883;-76
2022/08/31 04:06:37;;;;;;;;;42.50;36.75;;;;;28.55;52.07;99279.69;5071142;28;8886;-77
2022/08/31 04:09:24;;;;;;;;;44.25;37.50;;;;;28.55;52.58;99282.38;5068469;28;8871;-77
2022/08/31 04:11:59;;;;;;;;;41.50;36.25;;;;;28.52;52.69;99279.91;5035226;28;10233;-77
2022/08/31 04:14:46;;;;;;;;;49.25;39.75;;;;;28.51;52.50;99281.72;5067283;28;8931;-78
2022/08/31 04:17:44;;;;;;;;;47.50;41.00;;;;;28.43;52.97;99283.28;5046015;28;8842;-78
2022/08/31 04:20:37;;;;;;;;;46.00;37.75;;;;;28.43;52.83;99278.81;5005040;28;9024;-77
2022/08/31 04:23:08;;;;;;;;;40.75;36.00;;;;;28.48;52.78;99281.09;5004558;28;9625;-75
2022/08/31 04:25:41;;;;;;;;;41.75;36.00;;;;;28.48;52.64;99281.09;4989068;28;8879;-76
2022/08/31 04:28:12;;;;;;;;;44.75;39.00;;;;;28.51;52.88;99278.19;4989350;28;8875;-76
2022/08/31 04:30:43;;;;;;;;;54.75;46.00;;;;;28.36;53.40;99288.31;4988847;28;9633;-78
2022/08/31 04:33:16;;;;;;;;;44.75;37.25;;;;;28.38;53.44;99280.97;4943262;28;8919;-77
2022/08/31 04:35:45;;;;;;;;;40.25;35.25;;;;;28.27;53.77;99284.50;4983233;28;8831;-78
2022/08/31 04:38:15;;;;;;;;;48.75;39.25;;;;;28.19;54.04;99284.25;4986013;28;8830;-79
2022/08/31 04:40:46;;;;;;;;;43.50;37.75;;;;;28.35;53.53;99284.75;4970178;28;8904;-79
2022/08/31 04:43:14;;;;;;;;;44.00;38.25;;;;;28.33;53.70;99284.00;4995024;28;10221;-77
2022/08/31 04:45:43;;;;;;;;;48.50;36.75;;;;;28.38;53.42;99283.66;5005509;28;8985;-79
2022/08/31 04:48:14;;;;;;;;;45.75;37.25;;;;;28.47;53.25;99293.66;5013371;28;8974;-76
2022/08/31 04:50:43;;;;;;;;;44.75;38.75;;;;;28.52;53.02;99282.59;5008528;28;8874;-77
2022/08/31 04:53:13;;;;;;;;;41.75;37.00;;;;;28.61;52.72;99284.56;5006314;28;8866;-75
2022/08/31 04:55:43;;;;;;;;;47.00;39.25;;;;;28.75;52.32;99288.81;5067389;28;8841;-78
2022/08/31 04:58:14;;;;;;;;;47.75;39.50;;;;;28.65;52.35;99293.22;5066954;28;8846;-77
2022/08/31 05:00:43;;;;;;;;;49.50;40.50;;;;;28.64;52.72;99291.50;5067046;28;8878;-77
2022/08/31 05:03:21;;;;;;;;;43.75;38.00;;;;;28.67;52.70;99297.47;5084158;28;9431;-77
2022/08/31 05:05:53;;;;;;;;;41.00;36.25;;;;;28.71;52.48;99296.25;5088557;27;8842;-78
2022/08/31 05:08:22;;;;;;;;;44.50;37.25;;;;;28.67;52.61;99294.78;5071400;27;8835;-75
2022/08/31 05:10:52;;;;;;;;;50.75;41.25;;;;;28.70;52.80;99296.38;5129084;27;8851;-76
2022/08/31 05:13:21;;;;;;;;;49.00;40.00;;;;;28.74;52.49;99297.84;5138143;27;8827;-76
2022/08/31 05:15:49;;;;;;;;;49.75;42.25;;;;;28.66;52.71;99289.53;5112327;27;8847;-72
2022/08/31 05:18:25;;;;;;;;;45.25;39.00;;;;;28.37;53.66;99290.88;5149239;27;8827;-74
2022/08/31 05:21:09;;;;;;;;;48.25;40.75;;;;;28.46;53.63;99288.41;5128047;27;8980;-73
2022/08/31 05:23:38;;;;;;;;;47.00;40.00;;;;;28.48;53.48;99299.88;5108241;27;8932;-76
2022/08/31 05:26:09;;;;;;;;;46.75;39.25;;;;;28.69;53.01;99287.47;5113995;27;8922;-71
2022/08/31 05:28:38;;;;;;;;;47.25;38.75;;;;;28.84;52.57;99289.91;5147741;27;8848;-73
2022/08/31 05:31:06;;;;;;;;;51.00;41.25;;;;;28.56;53.31;99292.09;5125603;27;8852;-72
2022/08/31 05:33:43;;;;;;;;;46.25;39.50;;;;;28.72;52.97;99307.84;5108803;27;9563;-74
2022/08/31 05:36:14;;;;;;;;;45.25;39.50;;;;;28.86;52.50;99294.16;5109078;27;8883;-74
2022/08/31 05:38:43;;;;;;;;;45.25;38.25;;;;;29.02;52.14;99301.84;5125139;27;8866;-74
2022/08/31 05:41:15;;;;;;;;;47.25;39.50;;;;;29.12;51.94;99307.31;5124264;27;8884;-71
2022/08/31 05:43:44;;;;;;;;;45.25;38.50;;;;;29.15;51.60;99302.56;5074575;27;8849;-73
2022/08/31 05:46:14;;;;;;;;;45.50;38.75;;;;;29.33;51.42;99315.47;5115561;27;9564;-71
2022/08/31 05:48:45;;;;;;;;;43.00;37.75;;;;;29.42;50.92;99313.88;5133914;27;8950;-71
2022/08/31 05:51:19;;;;;;;;;42.00;37.00;;;;;29.53;50.46;99312.00;5133659;27;8843;-75
2022/08/31 05:53:48;;;;;;;;;40.00;35.50;;;;;29.65;50.30;99312.78;5133498;27;8847;-73
2022/08/31 05:56:20;;;;;;;;;44.00;36.75;;;;;29.74;50.10;99313.91;5102993;27;8853;-76
2022/08/31 05:58:53;;;;;;;;;41.75;35.75;;;;;29.80;50.22;99320.59;5132554;27;8839;-73
2022/08/31 06:01:25;;;;;;;;;40.75;34.25;;;;;29.85;49.64;99321.91;5064017;27;8863;-75
2022/08/31 06:04:03;;;;;;;;;41.25;32.75;;;;;29.77;49.87;99321.69;5133895;27;8849;-72
2022/08/31 06:06:32;;;;;;;;;40.25;35.00;;;;;29.89;49.25;99323.34;5133374;27;8867;-71
2022/08/31 06:09:01;;;;;;;;;41.25;34.75;;;;;30.04;48.90;99325.69;5129666;27;8953;-72
2022/08/31 06:11:33;;;;;;;;;40.00;34.50;;;;;30.18;48.60;99322.69;5111876;27;8846;-72
2022/08/31 06:14:04;;;;;;;;;40.25;35.25;;;;;30.17;48.50;99326.38;5126204;27;8849;-76
2022/08/31 06:16:34;;;;;;;;;37.00;33.00;;;;;30.25;48.75;99328.41;5077999;27;8950;-72
2022/08/31 06:19:06;;;;;;;;;39.50;34.25;;;;;30.28;48.58;99328.13;5115012;27;8847;-71
2022/08/31 06:21:39;;;;;;;;;38.25;32.50;;;;;30.42;48.23;99321.63;5123271;27;8906;-73
2022/08/31 06:24:22;;;;;;;;;41.00;32.50;;;;;30.20;48.17;99320.72;5132313;27;8855;-73
2022/08/31 06:26:56;;;;;;;;;41.00;35.25;;;;;30.35;48.25;99323.13;5145619;27;8858;-73
2022/08/31 06:29:30;;;;;;;;;33.25;31.25;;;;;30.03;48.84;99324.84;5102287;27;9000;-72
2022/08/31 06:32:06;;;;;;;;;44.50;36.50;;;;;30.17;48.48;99326.38;5120033;27;8887;-73
2022/08/31 06:34:39;;;;;;;;;34.25;30.75;;;;;30.10;49.10;99317.97;5132130;27;8847;-73
2022/08/31 06:37:10;;;;;;;;;42.50;36.00;;;;;30.24;48.99;99321.31;5120044;27;8842;-73
2022/08/31 06:40:16;;;;;;;;;37.75;33.25;;;;;30.25;48.38;99312.28;5065094;28;8868;-74
2022/08/31 06:43:09;;;;;;;;;38.25;34.25;;;;;30.31;48.85;99315.28;5065705;28;8894;-75
2022/08/31 06:46:04;;;;;;;;;43.00;35.75;;;;;30.20;48.90;99323.41;5045218;28;10183;-74
2022/08/31 06:48:33;;;;;;;;;38.75;34.75;;;;;29.71;50.07;99322.19;5044800;28;8895;-74
2022/08/31 06:51:02;;;;;;;;;45.25;36.25;;;;;29.48;51.23;99324.94;5045668;28;8860;-73
2022/08/31 06:53:31;;;;;;;;;44.50;36.50;;;;;28.75;53.26;99327.25;4997029;28;8978;-71
2022/08/31 06:56:20;;;;;;;;;43.25;34.50;;;;;29.02;52.84;99320.63;5045637;28;8914;-72
2022/08/31 06:59:19;;;;;;;;;38.00;33.25;;;;;29.56;51.21;99324.31;4965650;28;8856;-73
2022/08/31 07:01:51;;;;;;;;;37.50;33.50;;;;;29.87;50.15;99325.31;4967326;28;9629;-75
2022/08/31 07:04:35;;;;;;;;;37.25;33.25;;;;;30.24;49.69;99329.38;4950303;28;9062;-73
2022/08/31 07:07:05;;;;;;;;;44.75;36.75;;;;;30.37;49.27;99318.47;4966772;28;8860;-73
2022/08/31 07:09:34;;;;;;;;;42.25;35.75;;;;;30.61;48.31;99323.53;4949249;28;9739;-74
2022/08/31 07:12:04;;;;;;;;;38.50;34.50;;;;;30.77;48.29;99321.19;4966235;28;8974;-75
2022/08/31 07:14:36;;;;;;;;;46.25;37.00;;;;;29.84;50.16;99314.81;4918804;28;8886;-74
2022/08/31 07:17:07;;;;;;;;;45.50;37.50;;;;;29.66;50.25;99327.06;4958561;28;8906;-74
2022/08/31 07:19:36;;;;;;;;;45.25;37.50;;;;;29.84;49.98;99319.34;4968572;28;8854;-76
2022/08/31 07:22:12;;;;;;;;;43.50;34.75;;;;;29.79;50.21;99325.09;5008945;28;8992;-73
2022/08/31 07:24:45;;;;;;;;;46.50;37.75;;;;;29.63;49.93;99316.59;5045867;28;9024;-74
2022/08/31 07:27:17;;;;;;;;;38.50;33.50;;;;;29.48;50.30;99321.41;5041768;28;8981;-75
2022/08/31 07:29:58;;;;;;;;;41.50;33.75;;;;;29.38;51.00;99315.97;5014574;28;8923;-75
2022/08/31 07:32:30;;;;;;;;;40.75;35.75;;;;;29.67;50.11;99318.88;5040050;28;8879;-73
2022/08/31 07:35:00;;;;;;;;;40.25;35.25;;;;;29.41;50.67;99317.53;5002224;27;8858;-75
2022/08/31 07:43:26;;;;;;;;;38.75;33.50;;;;;29.88;50.16;99318.09;5063528;28;8910;-74
2022/08/31 07:45:57;;;;;;;;;41.25;35.25;;;;;30.02;49.48;99314.22;5049043;28;8864;-74
2022/08/31 07:48:26;;;;;;;;;40.25;35.50;;;;;29.31;51.17;99320.97;5065447;28;8848;-74
2022/08/31 07:51:05;;;;;;;;;41.25;36.25;;;;;29.27;51.45;99315.97;5048348;28;8855;-74
2022/08/31 07:53:46;;;;;;;;;37.75;33.00;;;;;29.79;50.37;99318.88;5005715;28;8864;-74
2022/08/31 07:56:36;;;;;;;;;36.00;32.50;;;;;30.09;49.67;99318.09;5065097;28;8840;-74
2022/08/31 07:59:15;;;;;;;;;39.50;34.50;;;;;30.10;49.33;99309.91;5048046;28;8908;-74
2022/08/31 08:01:48;;;;;;;;;35.75;33.00;;;;;29.91;49.59;99315.16;5031723;28;8856;-76
2022/08/31 08:04:24;;;;;;;;;38.00;33.75;;;;;29.54;50.92;99308.31;5015534;28;9618;-74
2022/08/31 08:07:15;;;;;;;;;40.75;35.50;;;;;29.59;50.50;99312.47;5065434;28;8844;-74
2022/08/31 08:10:12;;;;;;;;;42.25;35.75;;;;;29.02;52.40;99317.94;5055718;28;8937;-76
2022/08/31 08:13:01;;;;;;;;;36.75;30.50;;;;;29.54;51.35;99312.84;5048559;28;9696;-74
2022/08/31 08:16:05;;;;;;;;;39.25;34.25;;;;;29.85;50.24;99318.34;5030779;28;8853;-76
2022/08/31 08:18:50;;;;;;;;;38.50;34.75;;;;;29.84;50.45;99308.59;4992925;28;9578;-67
2022/08/31 08:21:23;;;;;;;;;38.50;34.25;;;;;29.76;50.77;99311.94;5008387;28;8926;-64
2022/08/31 08:23:53;;;;;;;;;37.75;32.25;;;;;28.99;52.64;99315.50;4992364;28;8829;-64
2022/08/31 08:26:43;;;;;;;;;33.00;31.00;;;;;28.74;53.65;99312.09;5023731;28;8844;-64
2022/08/31 08:29:31;;;;;;;;;32.75;31.50;;;;;28.99;53.16;99303.91;5037564;28;8894;-66
2022/08/31 08:32:02;;;;;;;;;39.00;32.50;;;;;29.43;51.83;99307.50;5025314;28;8862;-67
2022/08/31 08:34:33;;;;;;;;;26.20;24.60;;;;;29.01;53.06;99312.69;5010869;28;8858;-65
2022/08/31 08:37:06;;;;;;;;;34.60;32.20;;;;;29.14;52.99;99303.53;5043819;28;9607;-65
2022/08/31 08:39:35;;;;;;;;;31.00;30.40;;;;;28.68;53.69;99307.25;4994519;28;8854;-65
2022/08/31 08:42:15;;;;;;;;;29.40;28.80;;;;;28.59;53.32;99305.28;5043941;28;8945;-65
2022/08/31 08:44:45;;;;;;;;;30.40;28.40;;;;;28.43;53.86;99308.31;5027759;28;8862;-65
2022/08/31 08:47:21;;;;;;;;;28.80;28.00;;;;;29.31;51.58;99298.63;5044090;28;8842;-66
2022/08/31 08:50:02;;;;;;;;;29.00;28.20;;;;;29.49;50.93;99299.78;5043961;28;8935;-64
2022/08/31 08:52:40;;;;;;;;;28.60;26.00;;;;;30.07;49.17;99298.56;5067042;28;8842;-65
2022/08/31 08:55:14;;;;;;;;;28.00;26.60;;;;;29.70;51.05;99296.28;5085281;28;8846;-64
2022/08/31 08:57:46;;;;;;;;;33.00;31.75;;;;;30.05;50.38;99287.94;5086873;28;8834;-65
2022/08/31 09:00:18;;;;;;;;;33.00;30.00;;;;;30.58;48.84;99291.50;5084686;28;8864;-66
2022/08/31 09:02:56;;;;;;;;;32.40;30.60;;;;;30.97;48.29;99286.31;5087800;28;9577;-65
2022/08/31 09:06:08;;;;;;;;;32.00;30.50;;;;;31.61;46.69;99280.44;5087602;28;8843;-65
2022/08/31 09:09:09;;;;;;;;;32.60;29.60;;;;;31.86;46.21;99276.28;5087143;28;9624;-65
2022/08/31 09:11:53;;;;;;;;;29.40;29.20;;;;;32.11;45.01;99273.16;5087589;28;8858;-65
2022/08/31 09:14:48;;;;;;;;;27.80;26.80;;;;;32.31;44.74;99282.91;5038524;28;8847;-65
2022/08/31 09:17:34;;;;;;;;;32.00;30.20;;;;;30.94;47.12;99279.31;5088227;28;8869;-66
2022/08/31 09:20:04;;;;;;;;;32.20;30.20;;;;;30.88;47.68;99280.69;5088501;28;8840;-65
2022/08/31 09:22:45;;;;;;;;;32.25;30.00;;;;;30.35;48.50;99272.00;5087662;27;9674;-65
2022/08/31 09:25:19;;;;;;;;;28.00;28.00;;;;;30.55;46.98;99281.88;5062829;27;8884;-64
2022/08/31 09:28:13;;;;;;;;;31.00;29.40;;;;;29.89;49.41;99274.97;5089429;27;8886;-66
2022/08/31 09:30:51;;;;;;;;;27.20;26.00;;;;;30.51;48.12;99270.53;5151651;27;9516;-67
2022/08/31 09:33:22;;;;;;;;;28.20;28.20;;;;;31.21;46.61;99270.59;5151951;27;8847;-66
2022/08/31 09:35:55;;;;;;;;;26.60;25.60;;;;;31.66;45.31;99261.13;5151678;27;8859;-64
2022/08/31 09:38:30;;;;;;;;;27.60;27.20;;;;;32.18;43.77;99255.41;5151953;27;8842;-64
2022/08/31 09:41:00;;;;;;;;;30.40;28.80;;;;;32.23;42.93;99255.78;5151772;27;8899;-66
2022/08/31 09:43:33;;;;;;;;;27.80;27.00;;;;;31.91;43.78;99257.00;5151937;27;8854;-64
2022/08/31 09:46:06;;;;;;;;;23.20;23.20;;;;;32.41;43.04;99253.19;5151172;27;8844;-65
2022/08/31 09:48:42;;;;;;;;;27.00;26.40;;;;;32.71;42.48;99251.25;5152852;27;8843;-65
2022/08/31 09:51:21;;;;;;;;;24.80;23.80;;;;;33.15;41.52;99244.16;5152368;27;8909;-67
2022/08/31 09:56:55;;;;;;;;;23.20;22.00;;;;;32.35;40.95;99234.91;5131599;27;8852;-65
2022/08/31 09:59:36;;;;;;;;;28.60;27.40;;;;;31.31;43.50;99249.06;5131333;27;8837;-67
2022/08/31 10:02:10;;;;;;;;;28.60;26.80;;;;;30.84;44.84;99238.03;5131607;27;8934;-67
2022/08/31 10:04:49;;;;;;;;;26.00;24.40;;;;;30.65;45.11;99231.59;5131377;27;8826;-64
2022/08/31 10:07:37;;;;;;;;;27.00;25.20;;;;;30.99;43.88;99225.91;5094853;27;8863;-65
2022/08/31 10:10:12;;;;;;;;;25.80;22.80;;;;;31.55;42.40;99219.03;5148649;27;8823;-66
2022/08/31 10:13:02;;;;;;;;;17.40;17.40;;;;;32.21;41.60;99218.19;5133209;27;8859;-65
2022/08/31 10:15:39;;;;;;;;;19.20;19.20;;;;;32.58;40.02;99213.78;5151899;27;8899;-67
2022/08/31 10:18:15;;;;;;;;;20.60;19.80;;;;;33.02;39.35;99213.94;5144349;27;8830;-63
2022/08/31 10:20:54;;;;;;;;;12.40;12.00;;;;;33.35;37.60;99209.72;5131079;27;8918;-66
2022/08/31 10:23:32;;;;;;;;;17.20;16.80;;;;;33.72;36.66;99208.69;5130867;27;8854;-64
2022/08/31 10:26:07;;;;;;;;;18.60;18.40;;;;;34.04;36.07;99201.78;5131273;27;8841;-64
2022/08/31 10:28:42;;;;;;;;;18.20;18.20;;;;;34.07;35.38;99206.06;5130996;27;8883;-65
2022/08/31 10:31:21;;;;;;;;;24.20;23.60;;;;;34.58;35.67;99201.59;5144397;27;8836;-65
2022/08/31 10:36:46;;;;;;;;;26.75;26.75;;;;;34.95;35.07;99194.94;5132026;27;8943;-64
2022/08/31 10:39:24;;;;;;;;;23.40;22.40;;;;;34.53;36.01;99191.22;5131166;27;8849;-66
2022/08/31 10:41:54;;;;;;;;;30.60;29.20;;;;;33.17;38.40;99198.91;5151138;27;9430;-66
2022/08/31 10:44:31;;;;;;;;;27.20;25.80;;;;;33.68;39.00;99196.50;5150654;27;9658;-64
2022/08/31 10:47:04;;;;;;;;;23.40;23.20;;;;;33.73;37.83;99190.63;5151412;27;8934;-66
2022/08/31 10:49:35;;;;;;;;;29.00;27.60;;;;;34.00;37.89;99184.19;5135796;27;8988;-66
2022/08/31 10:52:16;;;;;;;;;28.60;25.60;;;;;34.20;36.50;99181.28;5113640;27;8935;-80
2022/08/31 10:54:53;;;;;;;;;27.60;27.00;;;;;34.39;36.60;99175.63;5114413;27;8861;-67
2022/08/31 10:57:37;;;;;;;;;22.00;22.00;;;;;34.66;36.26;99176.38;5142236;27;8816;-80
2022/08/31 11:00:40;;;;;;;;;24.20;21.20;;;;;34.66;36.01;99179.94;5115819;27;8855;-81
2022/08/31 11:03:06;;;;;;;;;22.40;22.40;;;;;35.06;35.50;99172.09;5116046;27;8852;-79
2022/08/31 11:05:42;;;;;;;;;29.50;28.00;;;;;35.22;34.78;99177.56;5132772;27;8867;-83
2022/08/31 11:08:41;;;;;;;;;23.40;22.40;;;;;35.52;35.14;99165.19;5098304;27;8865;-83
2022/08/31 11:11:17;;;;;;;;;27.80;26.00;;;;;35.52;34.21;99172.44;5069990;28;8847;-78
2022/08/31 11:14:08;;;;;;;;;26.00;25.80;;;;;35.37;33.95;99169.59;5070011;28;9517;-81
2022/08/31 11:16:52;;;;;;;;;24.40;23.20;;;;;35.50;33.91;99159.09;5070167;28;8866;-79
2022/08/31 11:19:56;;;;;;;;;26.40;25.20;;;;;35.36;33.91;99164.34;5087634;28;8844;-79
2022/08/31 11:23:00;;;;;;;;;23.00;22.80;;;;;35.65;33.75;99163.78;5087591;28;8875;-80
2022/08/31 11:25:47;;;;;;;;;23.80;21.40;;;;;35.63;33.06;99165.84;5071353;28;8842;-79
2022/08/31 11:28:27;;;;;;;;;19.40;19.20;;;;;35.64;32.83;99170.25;5061985;28;8947;-79
2022/08/31 11:31:01;;;;;;;;;18.20;16.20;;;;;35.76;32.69;99160.75;5111603;28;9657;-81
2022/08/31 11:33:30;;;;;;;;;23.40;22.00;;;;;35.68;32.91;99161.63;5077772;28;9622;-80
2022/08/31 11:36:04;;;;;;;;;25.20;24.80;;;;;35.79;32.28;99165.00;5092298;28;8837;-82
2022/08/31 11:39:21;;;;;;;;;22.00;21.00;;;;;36.09;31.88;99164.25;5094459;28;9616;-83
2022/08/31 11:41:51;;;;;;;;;25.20;23.20;;;;;35.91;31.73;99153.59;5084831;27;8859;-80
2022/08/31 11:44:46;;;;;;;;;23.00;23.00;;;;;36.23;31.76;99150.97;5135880;27;8941;-81
2022/08/31 11:47:37;;;;;;;;;22.40;20.40;;;;;36.29;31.50;99150.28;5111301;27;9578;-81
2022/08/31 11:50:53;;;;;;;;;22.20;21.20;;;;;36.37;30.87;99152.09;5112235;27;8833;-81
2022/08/31 11:53:33;;;;;;;;;20.20;18.40;;;;;36.32;31.01;99149.09;5099960;27;8849;-81
2022/08/31 11:56:05;;;;;;;;;17.40;17.40;;;;;36.37;30.68;99152.09;5097492;27;8829;-82
2022/08/31 11:58:38;;;;;;;;;18.60;18.60;;;;;36.32;30.57;99149.94;5111879;27;8837;-82
2022/08/31 12:01:24;;;;;;;;;17.00;17.00;;;;;36.37;30.13;99139.41;5124502;27;8928;-81
2022/08/31 12:04:02;;;;;;;;;24.60;23.80;;;;;36.54;30.96;99142.84;5131566;27;8898;-80
2022/08/31 12:07:07;;;;;;;;;14.40;14.00;;;;;36.90;30.83;99127.88;5097160;27;9006;-81
2022/08/31 12:10:19;;;;;;;;;25.20;20.40;;;;;37.08;29.91;99136.56;5115009;27;9654;-80
2022/08/31 12:13:29;;;;;;;;;19.00;18.00;;;;;37.52;29.45;99138.59;5150873;27;8877;-81
2022/08/31 12:16:28;;;;;;;;;17.60;17.40;;;;;37.95;28.72;99125.22;5114808;27;8949;-79
2022/08/31 12:25:24;;;;;;;;;14.00;14.00;;;;;38.87;25.81;99123.00;5146784;27;8835;-80